createdAt,value
2022-08-26T00:00:24.215Z,16.84
2022-08-26T00:03:29.943Z,16.81
2022-08-26T00:06:37.929Z,16.83
2022-08-26T00:09:48.066Z,16.90
2022-08-26T00:12:56.806Z,16.90
2022-08-26T00:16:02.639Z,16.83
2022-08-26T00:19:08.438Z,16.88
2022-08-26T00:22:14.047Z,16.93
2022-08-26T00:25:27.610Z,16.92
2022-08-26T00:28:34.831Z,16.90
2022-08-26T00:31:41.844Z,16.92
2022-08-26T00:34:47.238Z,16.93
2022-08-26T00:37:52.817Z,16.86
2022-08-26T00:40:58.824Z,16.85
2022-08-26T00:44:06.281Z,16.85
2022-08-26T00:47:24.904Z,16.82
2022-08-26T00:50:34.970Z,16.82
2022-08-26T00:53:46.513Z,16.76
2022-08-26T00:56:57.662Z,16.77
2022-08-26T01:00:12.238Z,16.77
2022-08-26T01:03:19.662Z,16.73
2022-08-26T01:06:27.464Z,16.78
2022-08-26T01:09:33.710Z,16.75
2022-08-26T01:12:43.961Z,16.74
2022-08-26T01:15:53.438Z,16.75
2022-08-26T01:19:02.165Z,16.70
2022-08-26T01:22:13.460Z,16.70
2022-08-26T01:25:21.558Z,16.67
2022-08-26T01:28:30.968Z,16.68
2022-08-26T01:31:41.731Z,16.68
2022-08-26T01:34:48.663Z,16.70
2022-08-26T01:37:57.311Z,16.70
2022-08-26T01:41:04.411Z,16.70
2022-08-26T01:44:25.315Z,16.66
2022-08-26T01:47:33.207Z,16.71
2022-08-26T01:50:39.130Z,16.68
2022-08-26T01:53:46.061Z,16.63
2022-08-26T01:56:55.313Z,16.66
2022-08-26T02:00:05.381Z,16.60
2022-08-26T02:03:22.226Z,16.62
2022-08-26T02:06:27.960Z,16.59
2022-08-26T02:09:33.920Z,16.58
2022-08-26T02:12:48.570Z,16.55
2022-08-26T02:15:55.338Z,16.52
2022-08-26T02:19:02.302Z,16.51
2022-08-26T02:22:16.189Z,16.51
2022-08-26T02:25:27.126Z,16.55
2022-08-26T02:28:40.482Z,16.55
2022-08-26T02:31:45.848Z,16.60
2022-08-26T02:34:51.191Z,16.57
2022-08-26T02:37:57.578Z,16.53
2022-08-26T02:41:03.256Z,16.50
2022-08-26T02:44:10.679Z,16.49
2022-08-26T02:47:16.342Z,16.45
2022-08-26T02:50:22.590Z,16.44
2022-08-26T02:53:27.967Z,16.46
2022-08-26T02:56:37.467Z,16.41
2022-08-26T02:59:44.194Z,16.39
2022-08-26T03:02:50.270Z,16.39
2022-08-26T03:05:55.848Z,16.32
2022-08-26T03:09:01.463Z,16.30
2022-08-26T03:12:08.018Z,16.31
2022-08-26T03:15:18.582Z,16.33
2022-08-26T03:18:23.946Z,16.29
2022-08-26T03:21:29.684Z,16.32
2022-08-26T03:24:34.991Z,16.32
2022-08-26T03:27:40.513Z,16.32
2022-08-26T03:30:49.307Z,16.33
2022-08-26T03:33:58.824Z,16.36
2022-08-26T03:37:05.233Z,16.43
2022-08-26T03:40:13.717Z,16.46
2022-08-26T03:43:19.719Z,16.47
2022-08-26T03:46:26.770Z,16.46
2022-08-26T03:49:34.275Z,16.42
2022-08-26T03:52:43.665Z,16.36
2022-08-26T03:55:49.357Z,16.34
2022-08-26T03:58:57.439Z,16.35
2022-08-26T04:02:04.069Z,16.35
2022-08-26T04:05:20.095Z,16.39
2022-08-26T04:08:25.323Z,16.34
2022-08-26T04:11:35.960Z,16.34
2022-08-26T04:14:44.018Z,16.34
2022-08-26T04:17:51.315Z,16.34
2022-08-26T04:20:56.773Z,16.39
2022-08-26T04:24:03.592Z,16.40
2022-08-26T04:27:10.405Z,16.43
2022-08-26T04:30:17.226Z,16.46
2022-08-26T04:33:32.525Z,16.48
2022-08-26T04:36:38.597Z,16.50
2022-08-26T04:39:43.986Z,16.51
2022-08-26T04:42:50.282Z,16.53
2022-08-26T04:45:56.819Z,16.57
2022-08-26T04:49:05.095Z,16.60
2022-08-26T04:52:13.679Z,16.62
2022-08-26T04:55:19.428Z,16.66
2022-08-26T04:58:26.144Z,16.69
2022-08-26T05:01:32.316Z,16.71
2022-08-26T05:04:39.309Z,16.74
2022-08-26T05:07:44.833Z,16.81
2022-08-26T05:10:56.091Z,16.83
2022-08-26T05:14:02.502Z,16.87
2022-08-26T05:17:08.953Z,16.91
2022-08-26T05:20:16.852Z,16.94
2022-08-26T05:23:23.693Z,17.02
2022-08-26T05:26:31.461Z,17.06
2022-08-26T05:29:36.958Z,17.10
2022-08-26T05:32:44.167Z,17.15
2022-08-26T05:35:51.275Z,17.24
2022-08-26T05:38:57.846Z,17.31
2022-08-26T05:42:04.113Z,17.44
2022-08-26T05:45:10.801Z,17.55
2022-08-26T05:48:22.805Z,17.61
2022-08-26T05:51:31.251Z,17.69
2022-08-26T05:54:36.557Z,17.70
2022-08-26T05:57:44.094Z,17.81
2022-08-26T06:01:00.191Z,17.85
2022-08-26T06:04:05.732Z,17.93
2022-08-26T06:07:13.560Z,18.02
2022-08-26T06:10:32.211Z,18.12
2022-08-26T06:13:39.770Z,18.27
2022-08-26T06:16:45.613Z,18.24
2022-08-26T06:19:50.986Z,18.30
2022-08-26T06:23:15.731Z,18.42
2022-08-26T06:26:22.297Z,18.50
2022-08-26T06:29:28.839Z,18.61
2022-08-26T06:32:34.400Z,18.74
2022-08-26T06:35:42.083Z,18.91
2022-08-26T06:38:50.300Z,18.93
2022-08-26T06:41:56.125Z,18.92
2022-08-26T06:45:03.015Z,18.95
2022-08-26T06:48:09.190Z,19.08
2022-08-26T06:51:17.049Z,19.28
2022-08-26T06:54:23.799Z,19.36
2022-08-26T06:57:32.370Z,19.57
2022-08-26T07:00:38.502Z,19.96
2022-08-26T07:03:47.425Z,20.32
2022-08-26T07:06:54.169Z,20.33
2022-08-26T07:10:00.875Z,20.17
2022-08-26T07:13:07.335Z,19.95
2022-08-26T07:16:17.757Z,19.99
2022-08-26T07:19:29.883Z,20.04
2022-08-26T07:22:37.518Z,19.98
2022-08-26T07:25:44.371Z,20.10
2022-08-26T07:28:53.370Z,20.11
2022-08-26T07:31:59.013Z,20.00
2022-08-26T07:35:06.728Z,20.09
2022-08-26T07:38:14.022Z,19.96
2022-08-26T07:41:24.238Z,20.24
2022-08-26T07:44:29.617Z,20.18
2022-08-26T07:47:35.054Z,20.20
2022-08-26T07:50:49.949Z,20.27
2022-08-26T07:53:56.122Z,20.25
2022-08-26T07:57:05.087Z,20.39
2022-08-26T08:00:17.950Z,20.42
2022-08-26T08:03:23.895Z,20.33
2022-08-26T08:06:29.621Z,20.17
2022-08-26T08:09:37.379Z,20.30
2022-08-26T08:12:48.082Z,20.35
2022-08-26T08:15:53.814Z,20.47
2022-08-26T08:18:59.214Z,20.55
2022-08-26T08:22:17.008Z,20.60
2022-08-26T08:25:23.757Z,20.56
2022-08-26T08:28:30.659Z,20.62
2022-08-26T08:35:11.539Z,20.57
2022-08-26T08:38:17.754Z,20.51
2022-08-26T08:41:44.959Z,20.37
2022-08-26T08:44:54.326Z,20.35
2022-08-26T08:48:02.482Z,20.39
2022-08-26T08:51:16.740Z,20.51
2022-08-26T08:54:26.386Z,20.51
2022-08-26T08:57:42.039Z,20.54
2022-08-26T09:01:01.745Z,20.51
2022-08-26T09:04:45.206Z,20.46
2022-08-26T09:07:54.961Z,20.43
2022-08-26T09:11:02.439Z,20.41
2022-08-26T09:14:08.603Z,20.35
2022-08-26T09:17:24.139Z,20.27
2022-08-26T09:20:38.944Z,20.30
2022-08-26T09:23:49.330Z,20.34
2022-08-26T09:26:57.759Z,20.46
2022-08-26T09:30:03.159Z,20.52
2022-08-26T09:33:14.100Z,20.54
2022-08-26T09:36:26.299Z,20.53
2022-08-26T09:39:37.502Z,20.61
2022-08-26T09:42:43.281Z,20.65
2022-08-26T09:45:58.496Z,20.52
2022-08-26T09:49:35.812Z,20.52
2022-08-26T09:52:42.617Z,20.70
2022-08-26T09:55:51.182Z,20.74
2022-08-26T09:58:58.128Z,20.80
2022-08-26T10:02:20.717Z,20.81
2022-08-26T10:05:36.602Z,20.89
2022-08-26T10:08:47.488Z,20.87
2022-08-26T10:11:56.782Z,20.80
2022-08-26T10:15:09.283Z,20.77
2022-08-26T10:18:20.464Z,20.70
2022-08-26T10:21:31.688Z,20.72
2022-08-26T10:24:42.450Z,20.80
2022-08-26T10:27:55.433Z,20.78
2022-08-26T10:31:06.261Z,20.78
2022-08-26T10:34:14.231Z,20.85
2022-08-26T10:37:24.427Z,20.87
2022-08-26T10:40:49.114Z,20.95
2022-08-26T10:43:59.126Z,21.04
2022-08-26T10:47:16.701Z,21.07
2022-08-26T10:50:26.298Z,21.11
2022-08-26T10:53:46.573Z,21.12
2022-08-26T10:57:01.280Z,21.18
2022-08-26T11:00:28.893Z,21.20
2022-08-26T11:03:42.703Z,21.32
2022-08-26T11:06:47.910Z,21.32
2022-08-26T11:09:54.679Z,21.27
2022-08-26T11:13:03.582Z,21.36
2022-08-26T11:16:10.488Z,21.44
2022-08-26T11:20:03.880Z,21.50
2022-08-26T11:23:50.563Z,21.58
2022-08-26T11:26:57.726Z,21.63
2022-08-26T11:30:06.770Z,21.60
2022-08-26T11:33:51.028Z,21.61
2022-08-26T11:36:59.863Z,21.68
2022-08-26T11:40:10.742Z,21.78
2022-08-26T11:43:25.968Z,21.67
2022-08-26T11:46:37.660Z,21.63
2022-08-26T11:49:43.224Z,21.71
2022-08-26T11:53:01.834Z,21.68
2022-08-26T11:56:11.901Z,21.79
2022-08-26T11:59:24.307Z,21.78
2022-08-26T12:02:30.003Z,21.79
2022-08-26T12:05:39.626Z,21.78
2022-08-26T12:08:46.200Z,21.74
2022-08-26T12:11:52.728Z,21.84
2022-08-26T12:15:16.235Z,21.86
2022-08-26T12:18:29.529Z,21.85
2022-08-26T12:21:35.873Z,21.80
2022-08-26T12:24:45.286Z,21.86
2022-08-26T12:27:54.020Z,21.98
2022-08-26T12:31:07.173Z,21.96
2022-08-26T12:34:17.855Z,22.06
2022-08-26T12:37:23.886Z,22.14
2022-08-26T12:40:37.122Z,22.05
2022-08-26T12:43:44.878Z,22.11
2022-08-26T12:46:51.614Z,22.14
2022-08-26T12:50:05.090Z,22.31
2022-08-26T12:53:21.699Z,22.29
2022-08-26T12:56:31.634Z,22.27
2022-08-26T12:59:36.864Z,22.30
2022-08-26T13:02:43.761Z,22.33
2022-08-26T13:05:49.533Z,22.12
2022-08-26T13:08:56.541Z,22.05
2022-08-26T13:12:02.461Z,22.19
2022-08-26T13:15:09.595Z,22.29
2022-08-26T13:18:16.342Z,22.14
2022-08-26T13:21:25.012Z,22.28
2022-08-26T13:24:35.259Z,22.37
2022-08-26T13:27:40.534Z,22.45
2022-08-26T13:30:49.731Z,22.40
2022-08-26T13:33:56.481Z,22.34
2022-08-26T13:37:03.420Z,22.47
2022-08-26T13:40:11.077Z,22.43
2022-08-26T13:43:18.106Z,22.40
2022-08-26T13:46:23.513Z,22.38
2022-08-26T13:49:30.345Z,22.31
2022-08-26T13:52:35.670Z,22.11
2022-08-26T13:55:41.315Z,22.12
2022-08-26T13:58:46.789Z,22.14
2022-08-26T14:01:52.548Z,22.19
2022-08-26T14:04:59.354Z,21.97
2022-08-26T14:08:06.548Z,22.14
2022-08-26T14:11:12.540Z,22.01
2022-08-26T14:14:18.019Z,21.90
2022-08-26T14:17:25.093Z,22.09
2022-08-26T14:20:33.442Z,22.05
2022-08-26T14:23:38.974Z,22.08
2022-08-26T14:26:44.442Z,22.16
2022-08-26T14:29:49.817Z,22.11
2022-08-26T14:32:58.334Z,22.07
2022-08-26T14:36:23.715Z,21.96
2022-08-26T14:39:29.022Z,22.07
2022-08-26T14:42:34.407Z,22.02
2022-08-26T14:45:43.972Z,21.78
2022-08-26T14:48:49.221Z,21.82
2022-08-26T14:51:56.424Z,21.78
2022-08-26T14:55:02.010Z,21.79
2022-08-26T14:58:07.969Z,21.83
2022-08-26T15:01:13.438Z,21.93
2022-08-26T15:04:19.138Z,21.84
2022-08-26T15:07:25.814Z,21.85
2022-08-26T15:10:31.455Z,21.88
2022-08-26T15:13:36.810Z,21.83
2022-08-26T15:16:42.481Z,21.81
2022-08-26T15:19:47.798Z,21.73
2022-08-26T15:22:54.779Z,21.62
2022-08-26T15:26:00.219Z,21.71
2022-08-26T15:29:06.331Z,21.65
2022-08-26T15:32:12.586Z,21.64
2022-08-26T15:35:18.950Z,21.57
2022-08-26T15:38:25.707Z,21.55
2022-08-26T15:41:31.019Z,21.58
2022-08-26T15:44:44.992Z,21.56
2022-08-26T15:48:01.407Z,21.50
2022-08-26T15:51:09.473Z,21.53
2022-08-26T15:54:19.559Z,21.44
2022-08-26T15:57:24.860Z,21.30
2022-08-26T16:00:32.539Z,21.31
2022-08-26T16:03:38.221Z,21.14
2022-08-26T16:06:44.086Z,21.06
2022-08-26T16:09:54.229Z,21.19
2022-08-26T16:13:00.665Z,21.21
2022-08-26T16:16:06.108Z,21.20
2022-08-26T16:19:12.641Z,21.15
2022-08-26T16:22:18.530Z,21.15
2022-08-26T16:25:27.144Z,21.06
2022-08-26T16:28:32.401Z,21.01
2022-08-26T16:31:38.782Z,20.87
2022-08-26T16:34:55.209Z,20.85
2022-08-26T16:38:02.637Z,20.83
2022-08-26T16:41:10.333Z,20.86
2022-08-26T16:44:15.668Z,20.67
2022-08-26T16:47:21.794Z,20.79
2022-08-26T16:50:27.247Z,20.73
2022-08-26T16:53:33.625Z,20.66
2022-08-26T16:56:40.791Z,20.64
2022-08-26T16:59:46.361Z,20.70
2022-08-26T17:02:51.919Z,20.69
2022-08-26T17:05:57.123Z,20.56
2022-08-26T17:09:02.390Z,20.55
2022-08-26T17:12:09.905Z,20.49
2022-08-26T17:15:15.918Z,20.50
2022-08-26T17:18:21.530Z,20.44
2022-08-26T17:21:28.556Z,20.55
2022-08-26T17:24:35.431Z,20.53
2022-08-26T17:27:43.481Z,20.49
2022-08-26T17:30:48.742Z,20.46
2022-08-26T17:33:55.561Z,20.39
2022-08-26T17:37:00.829Z,20.37
2022-08-26T17:40:10.197Z,20.32
2022-08-26T17:43:17.286Z,20.31
2022-08-26T17:46:22.611Z,20.33
2022-08-26T17:49:28.250Z,20.33
2022-08-26T17:52:33.855Z,20.33
2022-08-26T17:55:41.469Z,20.26
2022-08-26T17:58:52.581Z,20.29
2022-08-26T18:01:58.667Z,20.26
2022-08-26T18:05:04.797Z,20.21
2022-08-26T18:08:11.953Z,20.18
2022-08-26T18:11:20.559Z,20.18
2022-08-26T18:14:27.658Z,20.10
2022-08-26T18:17:33.208Z,20.11
2022-08-26T18:20:40.272Z,20.01
2022-08-26T18:23:46.318Z,20.05
2022-08-26T18:26:51.622Z,20.05
2022-08-26T18:29:58.416Z,20.05
2022-08-26T18:33:04.163Z,20.08
2022-08-26T18:36:15.195Z,20.04
2022-08-26T18:39:22.151Z,19.99
2022-08-26T18:42:29.912Z,19.93
2022-08-26T18:45:37.381Z,19.93
2022-08-26T18:48:42.649Z,19.84
2022-08-26T18:51:50.590Z,19.72
2022-08-26T18:54:56.119Z,19.68
2022-08-26T18:58:01.413Z,19.60
2022-08-26T19:01:08.561Z,19.61
2022-08-26T19:04:15.736Z,19.72
2022-08-26T19:07:21.750Z,19.76
2022-08-26T19:10:28.391Z,19.72
2022-08-26T19:13:33.722Z,19.63
2022-08-26T19:16:41.853Z,19.67
2022-08-26T19:19:47.616Z,19.66
2022-08-26T19:22:52.937Z,19.66
2022-08-26T19:25:58.237Z,19.65
2022-08-26T19:29:03.764Z,19.66
2022-08-26T19:32:10.617Z,19.59
2022-08-26T19:35:16.200Z,19.53
2022-08-26T19:38:21.570Z,19.52
2022-08-26T19:41:36.687Z,19.57
2022-08-26T19:45:00.682Z,19.46
2022-08-26T19:48:07.527Z,19.36
2022-08-26T19:51:15.714Z,19.27
2022-08-26T19:54:22.825Z,19.36
2022-08-26T19:57:28.153Z,19.41
2022-08-26T20:00:34.618Z,19.40
2022-08-26T20:03:42.682Z,19.35
2022-08-26T20:06:48.161Z,19.28
2022-08-26T20:10:00.454Z,19.36
2022-08-26T20:13:05.882Z,19.28
2022-08-26T20:16:14.874Z,19.23
2022-08-26T20:19:39.361Z,19.17
2022-08-26T20:22:45.498Z,19.17
2022-08-26T20:25:50.975Z,19.11
2022-08-26T20:28:56.565Z,19.05
2022-08-26T20:32:02.750Z,19.13
2022-08-26T20:35:14.438Z,19.13
2022-08-26T20:38:21.581Z,19.14
2022-08-26T20:41:28.604Z,19.21
2022-08-26T20:44:34.439Z,19.22
2022-08-26T20:47:39.970Z,19.21
2022-08-26T20:50:47.038Z,19.24
2022-08-26T20:53:52.490Z,19.19
2022-08-26T20:56:59.254Z,19.28
2022-08-26T21:00:07.627Z,19.29
2022-08-26T21:03:18.381Z,19.28
2022-08-26T21:06:25.254Z,19.28
2022-08-26T21:09:30.647Z,19.28
2022-08-26T21:12:36.581Z,19.26
2022-08-26T21:15:41.845Z,19.33
2022-08-26T21:18:47.422Z,19.34
2022-08-26T21:21:54.158Z,19.34
2022-08-26T21:24:59.587Z,19.36
2022-08-26T21:28:05.446Z,19.35
2022-08-26T21:31:14.184Z,19.37
2022-08-26T21:34:21.121Z,19.26
2022-08-26T21:37:29.578Z,19.30
2022-08-26T21:40:35.289Z,19.31
2022-08-26T21:43:42.017Z,19.32
2022-08-26T21:46:47.899Z,19.37
2022-08-26T21:49:54.210Z,19.39
2022-08-26T21:53:01.161Z,19.39
2022-08-26T21:56:07.606Z,19.41
2022-08-26T21:59:14.239Z,19.43
2022-08-26T22:02:20.572Z,19.49
2022-08-26T22:05:26.269Z,19.52
2022-08-26T22:08:33.358Z,19.55
2022-08-26T22:11:39.007Z,19.57
2022-08-26T22:14:45.530Z,19.59
2022-08-26T22:17:51.119Z,19.61
2022-08-26T22:20:58.643Z,19.62
2022-08-26T22:24:08.715Z,19.64
2022-08-26T22:27:15.085Z,19.64
2022-08-26T22:30:21.615Z,19.65
2022-08-26T22:33:27.457Z,19.65
2022-08-26T22:36:32.731Z,19.67
2022-08-26T22:39:39.693Z,19.71
2022-08-26T22:42:55.740Z,19.75
2022-08-26T22:46:04.274Z,19.71
2022-08-26T22:49:10.475Z,19.71
2022-08-26T22:52:16.619Z,19.69
2022-08-26T22:55:23.207Z,19.72
2022-08-26T22:58:30.944Z,19.72
2022-08-26T23:01:37.907Z,19.73
2022-08-26T23:04:43.623Z,19.75
2022-08-26T23:07:48.810Z,19.77
2022-08-26T23:10:55.514Z,19.76
2022-08-26T23:14:02.302Z,19.77
2022-08-26T23:17:14.324Z,19.76
2022-08-26T23:20:20.354Z,19.77
2022-08-26T23:23:27.633Z,19.77
2022-08-26T23:26:35.041Z,19.81
2022-08-26T23:29:40.970Z,19.82
2022-08-26T23:32:46.255Z,19.84
2022-08-26T23:35:50.994Z,19.85
2022-08-26T23:38:56.398Z,19.88
2022-08-26T23:42:03.439Z,19.88
2022-08-26T23:45:12.098Z,19.91
2022-08-26T23:48:17.301Z,19.92
2022-08-26T23:51:42.606Z,19.94
2022-08-26T23:54:52.428Z,19.97
2022-08-26T23:57:59.133Z,19.98
